createdAt,value
2022-08-08T00:00:53.090Z,17.72
2022-08-08T00:03:31.450Z,17.72
2022-08-08T00:06:47.885Z,17.71
2022-08-08T00:09:55.981Z,17.70
2022-08-08T00:13:10.828Z,17.67
2022-08-08T00:16:36.076Z,17.68
2022-08-08T00:19:46.698Z,17.68
2022-08-08T00:23:02.558Z,17.65
2022-08-08T00:26:29.010Z,17.66
2022-08-08T00:29:44.905Z,17.65
2022-08-08T00:32:56.879Z,17.63
2022-08-08T00:36:15.068Z,17.61
2022-08-08T00:41:06.863Z,17.58
2022-08-08T00:43:40.894Z,17.56
2022-08-08T00:47:36.770Z,17.56
2022-08-08T00:51:24.843Z,17.55
2022-08-08T00:55:36.047Z,17.54
2022-08-08T00:59:18.746Z,17.53
2022-08-08T01:03:59.988Z,17.53
2022-08-08T01:07:13.368Z,17.54
2022-08-08T01:10:54.342Z,17.54
2022-08-08T01:14:54.129Z,17.55
2022-08-08T01:18:53.356Z,17.54
2022-08-08T01:22:32.347Z,17.49
2022-08-08T01:26:17.882Z,17.47
2022-08-08T01:29:59.164Z,17.45
2022-08-08T01:34:00.522Z,17.44
2022-08-08T01:37:56.883Z,17.43
2022-08-08T01:41:16.010Z,17.44
2022-08-08T01:44:39.081Z,17.46
2022-08-08T01:48:16.293Z,17.49
2022-08-08T01:52:42.795Z,17.49
2022-08-08T01:56:27.580Z,17.48
2022-08-08T01:59:21.822Z,17.47
2022-08-08T02:02:42.986Z,17.47
2022-08-08T02:05:59.255Z,17.49
2022-08-08T02:09:17.402Z,17.49
2022-08-08T02:12:29.859Z,17.49
2022-08-08T02:15:41.352Z,17.50
2022-08-08T02:18:58.902Z,17.50
2022-08-08T02:22:31.592Z,17.50
2022-08-08T02:25:48.754Z,17.50
2022-08-08T02:29:22.102Z,17.51
2022-08-08T02:32:46.566Z,17.53
2022-08-08T02:36:12.516Z,17.55
2022-08-08T02:39:59.548Z,17.56
2022-08-08T02:44:43.121Z,17.56
2022-08-08T02:47:59.683Z,17.55
2022-08-08T02:51:56.544Z,17.57
2022-08-08T02:55:24.146Z,17.57
2022-08-08T02:59:00.604Z,17.56
2022-08-08T03:02:37.683Z,17.57
2022-08-08T03:06:34.986Z,17.58
2022-08-08T03:10:33.430Z,17.55
2022-08-08T03:15:56.573Z,17.53
2022-08-08T03:17:52.129Z,17.51
2022-08-08T03:21:09.969Z,17.51
2022-08-08T03:24:21.463Z,17.50
2022-08-08T03:27:35.975Z,17.52
2022-08-08T03:30:49.345Z,17.54
2022-08-08T03:34:16.778Z,17.56
2022-08-08T03:38:52.827Z,17.59
2022-08-08T03:40:55.379Z,17.62
2022-08-08T03:44:01.736Z,17.64
2022-08-08T03:47:19.450Z,17.66
2022-08-08T03:50:28.037Z,17.67
2022-08-08T03:53:47.324Z,17.67
2022-08-08T03:56:54.889Z,17.66
2022-08-08T04:00:11.583Z,17.61
2022-08-08T04:03:18.348Z,17.59
2022-08-08T04:06:32.665Z,17.59
2022-08-08T04:09:58.875Z,17.60
2022-08-08T04:13:18.164Z,17.61
2022-08-08T04:16:40.658Z,17.63
2022-08-08T04:19:47.471Z,17.64
2022-08-08T04:22:55.006Z,17.66
2022-08-08T04:26:09.405Z,17.68
2022-08-08T04:29:16.396Z,17.71
2022-08-08T04:32:30.572Z,17.74
2022-08-08T04:35:40.706Z,17.79
2022-08-08T04:39:47.928Z,17.85
2022-08-08T04:42:23.621Z,17.90
2022-08-08T04:45:30.329Z,17.94
2022-08-08T04:48:36.539Z,17.99
2022-08-08T04:51:55.171Z,18.05
2022-08-08T04:55:04.516Z,18.14
2022-08-08T04:58:14.709Z,18.25
2022-08-08T05:01:24.091Z,18.35
2022-08-08T05:04:44.531Z,18.44
2022-08-08T05:07:51.231Z,18.52
2022-08-08T05:11:02.984Z,18.61
2022-08-08T05:14:11.944Z,18.69
2022-08-08T05:17:19.102Z,18.77
2022-08-08T05:20:25.639Z,18.85
2022-08-08T05:23:32.962Z,18.92
2022-08-08T05:26:48.782Z,18.97
2022-08-08T05:29:55.165Z,19.01
2022-08-08T05:33:03.354Z,19.04
2022-08-08T05:36:25.440Z,19.00
2022-08-08T05:39:35.024Z,18.95
2022-08-08T05:42:44.703Z,18.94
2022-08-08T05:45:53.324Z,18.95
2022-08-08T05:49:03.815Z,18.95
2022-08-08T05:52:17.835Z,18.96
2022-08-08T05:56:09.531Z,18.99
2022-08-08T05:59:12.647Z,19.05
2022-08-08T06:02:44.008Z,19.09
2022-08-08T06:05:59.094Z,19.14
2022-08-08T06:09:58.556Z,19.16
2022-08-08T06:12:36.706Z,19.17
2022-08-08T06:15:51.375Z,19.20
2022-08-08T06:19:01.841Z,19.26
2022-08-08T06:26:35.945Z,19.41
2022-08-08T06:29:26.887Z,19.44
2022-08-08T06:32:47.707Z,19.49
2022-08-08T06:36:04.693Z,19.57
2022-08-08T06:39:16.473Z,19.65
2022-08-08T06:42:23.646Z,19.73
2022-08-08T06:45:33.404Z,19.82
2022-08-08T06:48:40.084Z,19.90
2022-08-08T07:04:37.715Z,19.79
2022-08-08T07:07:24.022Z,20.02
2022-08-08T07:57:09.029Z,19.09
2022-08-08T08:00:17.874Z,19.31
2022-08-08T08:03:43.461Z,19.52
2022-08-08T08:06:50.770Z,19.72
2022-08-08T08:09:58.690Z,19.89
2022-08-08T08:13:25.825Z,20.03
2022-08-08T08:16:50.449Z,20.20
2022-08-08T08:20:01.677Z,20.33
2022-08-08T08:23:07.934Z,20.43
2022-08-08T08:26:14.781Z,20.46
2022-08-08T08:29:33.680Z,20.52
2022-08-08T08:32:51.113Z,20.55
2022-08-08T08:36:20.418Z,20.61
2022-08-08T08:39:22.916Z,20.63
2022-08-08T08:42:36.199Z,20.70
2022-08-08T08:45:43.986Z,20.68
2022-08-08T08:48:50.747Z,20.22
2022-08-08T08:52:02.908Z,19.82
2022-08-08T08:55:14.740Z,19.57
2022-08-08T08:58:32.737Z,19.52
2022-08-08T09:01:43.726Z,19.99
2022-08-08T09:04:57.335Z,20.43
2022-08-08T09:08:12.759Z,20.72
2022-08-08T09:11:25.676Z,20.92
2022-08-08T09:14:42.811Z,21.14
2022-08-08T09:17:55.803Z,21.37
2022-08-08T09:22:02.438Z,21.57
2022-08-08T09:24:32.667Z,21.46
2022-08-08T09:27:56.701Z,21.12
2022-08-08T09:31:13.229Z,20.87
2022-08-08T09:34:32.058Z,20.71
2022-08-08T09:37:58.267Z,20.63
2022-08-08T09:41:08.167Z,20.58
2022-08-08T09:44:34.455Z,20.54
2022-08-08T09:48:05.159Z,20.60
2022-08-08T09:51:09.895Z,20.70
2022-08-08T09:54:19.979Z,20.72
2022-08-08T09:57:55.812Z,20.76
2022-08-08T10:01:15.632Z,20.83
2022-08-08T10:04:47.528Z,20.98
2022-08-08T10:08:01.630Z,21.15
2022-08-08T10:12:22.444Z,21.38
2022-08-08T10:14:40.224Z,21.54
2022-08-08T10:18:06.458Z,21.75
2022-08-08T10:21:25.292Z,21.96
2022-08-08T10:24:38.173Z,22.11
2022-08-08T10:27:46.449Z,22.16
2022-08-08T10:31:21.513Z,22.17
2022-08-08T10:35:00.448Z,22.30
2022-08-08T10:38:10.743Z,22.43
2022-08-08T10:41:24.329Z,22.51
2022-08-08T10:44:43.198Z,22.53
2022-08-08T10:47:56.710Z,22.53
2022-08-08T10:51:14.828Z,22.60
2022-08-08T10:54:26.844Z,22.78
2022-08-08T10:57:45.505Z,23.02
2022-08-08T11:01:03.149Z,23.13
2022-08-08T11:04:12.282Z,23.10
2022-08-08T11:08:30.277Z,23.06
2022-08-08T11:11:08.166Z,23.10
2022-08-08T11:14:32.510Z,23.23
2022-08-08T11:17:59.385Z,23.34
2022-08-08T11:21:10.083Z,23.50
2022-08-08T11:24:17.171Z,23.57
2022-08-08T11:27:36.962Z,23.64
2022-08-08T11:30:51.844Z,23.74
2022-08-08T11:34:22.911Z,23.70
2022-08-08T11:37:39.790Z,23.67
2022-08-08T11:40:57.979Z,23.56
2022-08-08T11:44:05.381Z,23.45
2022-08-08T11:47:17.152Z,23.34
2022-08-08T11:50:25.030Z,23.19
2022-08-08T11:53:42.897Z,23.06
2022-08-08T11:57:14.000Z,22.97
2022-08-08T12:00:23.379Z,22.90
2022-08-08T12:03:34.227Z,22.92
2022-08-08T12:06:40.730Z,22.98
2022-08-08T12:09:59.326Z,23.07
2022-08-08T12:13:12.293Z,23.29
2022-08-08T12:16:30.198Z,23.52
2022-08-08T12:19:51.839Z,23.69
2022-08-08T12:23:00.375Z,23.83
2022-08-08T12:26:16.919Z,23.91
2022-08-08T12:29:42.331Z,24.01
2022-08-08T12:32:51.218Z,24.04
2022-08-08T12:35:57.517Z,24.02
2022-08-08T12:39:06.757Z,23.94
2022-08-08T12:42:20.883Z,23.90
2022-08-08T12:46:00.096Z,23.88
2022-08-08T12:52:34.838Z,23.86
2022-08-08T12:56:17.753Z,23.88
2022-08-08T12:59:36.454Z,23.87
2022-08-08T13:03:00.700Z,23.91
2022-08-08T13:06:13.993Z,23.85
2022-08-08T13:09:29.951Z,23.77
2022-08-08T13:12:46.979Z,23.67
2022-08-08T13:15:55.076Z,23.60
2022-08-08T13:19:08.029Z,23.61
2022-08-08T13:22:24.530Z,23.66
2022-08-08T13:25:37.668Z,23.71
2022-08-08T13:28:45.710Z,23.76
2022-08-08T13:31:53.165Z,23.82
2022-08-08T13:35:00.642Z,23.81
2022-08-08T13:38:08.725Z,23.78
2022-08-08T13:41:19.669Z,23.69
2022-08-08T13:44:30.291Z,23.58
2022-08-08T13:47:37.534Z,23.52
2022-08-08T13:50:52.540Z,23.47
2022-08-08T13:54:01.035Z,23.36
2022-08-08T13:57:12.625Z,23.24
2022-08-08T14:00:23.078Z,23.14
2022-08-08T14:03:52.329Z,23.05
2022-08-08T14:07:03.332Z,22.96
2022-08-08T14:10:17.570Z,22.89
2022-08-08T14:13:59.221Z,22.82
2022-08-08T14:17:11.798Z,22.75
2022-08-08T14:20:56.958Z,22.71
2022-08-08T14:24:07.968Z,22.69
2022-08-08T14:27:27.069Z,22.68
2022-08-08T14:30:37.722Z,22.70
2022-08-08T14:33:51.812Z,22.72
2022-08-08T14:37:08.309Z,22.75
2022-08-08T14:40:24.010Z,22.79
2022-08-08T14:44:02.577Z,22.83
2022-08-08T14:47:01.598Z,22.88
2022-08-08T14:50:21.373Z,22.98
2022-08-08T14:53:56.294Z,23.11
2022-08-08T14:57:03.984Z,23.20
2022-08-08T15:00:13.756Z,23.27
2022-08-08T15:03:19.943Z,23.32
2022-08-08T15:06:28.902Z,23.33
2022-08-08T15:09:35.122Z,23.33
2022-08-08T15:12:42.506Z,23.32
2022-08-08T15:16:02.474Z,23.22
2022-08-08T15:19:09.775Z,23.12
2022-08-08T15:22:17.924Z,23.02
2022-08-08T15:25:32.975Z,22.95
2022-08-08T15:28:39.545Z,22.89
2022-08-08T15:32:03.712Z,22.84
2022-08-08T15:35:12.655Z,22.80
2022-08-08T15:38:22.594Z,22.77
2022-08-08T15:41:43.493Z,22.77
2022-08-08T15:44:50.527Z,22.77
2022-08-08T15:48:11.126Z,22.77
2022-08-08T15:51:22.758Z,22.75
2022-08-08T15:54:40.566Z,22.74
2022-08-08T15:57:46.735Z,22.73
2022-08-08T16:00:53.328Z,22.71
2022-08-08T16:03:59.920Z,22.70
2022-08-08T16:07:07.034Z,22.67
2022-08-08T16:13:15.124Z,22.66
2022-08-08T16:13:46.011Z,22.64
2022-08-08T16:16:55.247Z,22.61
2022-08-08T16:20:01.567Z,22.58
2022-08-08T16:23:08.811Z,22.55
2022-08-08T16:26:19.358Z,22.50
2022-08-08T16:30:12.883Z,22.43
2022-08-08T16:33:05.700Z,22.37
2022-08-08T16:36:15.645Z,22.33
2022-08-08T16:39:59.963Z,22.28
2022-08-08T16:42:51.772Z,22.24
2022-08-08T16:46:37.473Z,22.21
2022-08-08T16:49:38.508Z,22.17
2022-08-08T16:55:04.075Z,22.14
2022-08-08T16:56:15.253Z,22.10
2022-08-08T16:59:21.780Z,22.06
2022-08-08T17:02:38.114Z,22.01
2022-08-08T17:05:50.935Z,21.96
2022-08-08T17:08:57.193Z,21.92
2022-08-08T17:12:03.445Z,21.88
2022-08-08T17:15:20.152Z,21.82
2022-08-08T17:18:27.118Z,21.75
2022-08-08T17:21:41.145Z,21.69
2022-08-08T17:24:53.740Z,21.63
2022-08-08T17:28:00.356Z,21.57
2022-08-08T17:31:44.768Z,21.53
2022-08-08T17:34:47.855Z,21.47
2022-08-08T17:38:01.197Z,21.41
2022-08-08T17:41:10.221Z,21.45
2022-08-08T17:44:17.711Z,21.91
2022-08-08T17:47:27.614Z,22.33
2022-08-08T17:50:34.806Z,22.63
2022-08-08T17:53:43.394Z,22.73
2022-08-08T17:56:50.362Z,22.39
2022-08-08T18:00:01.619Z,22.06
2022-08-08T18:03:13.348Z,21.81
2022-08-08T18:06:30.757Z,21.71
2022-08-08T18:09:38.840Z,22.06
2022-08-08T18:12:46.016Z,22.35
2022-08-08T18:16:04.220Z,22.54
2022-08-08T18:19:13.284Z,22.68
2022-08-08T18:22:49.913Z,22.67
2022-08-08T18:25:48.046Z,22.19
2022-08-08T18:28:55.516Z,21.79
2022-08-08T18:32:03.229Z,21.49
2022-08-08T18:35:15.835Z,21.33
2022-08-08T18:38:29.547Z,21.65
2022-08-08T18:41:51.683Z,21.95
2022-08-08T18:45:09.227Z,22.13
2022-08-08T18:48:29.576Z,22.23
2022-08-08T18:51:52.732Z,22.28
2022-08-08T18:55:09.802Z,22.31
2022-08-08T18:58:17.853Z,22.23
2022-08-08T19:02:25.390Z,21.72
2022-08-08T19:04:55.513Z,21.23
2022-08-08T19:08:02.313Z,20.99
2022-08-08T19:11:09.426Z,21.25
2022-08-08T19:14:20.431Z,21.52
2022-08-08T19:17:29.359Z,21.68
2022-08-08T19:20:53.770Z,21.77
2022-08-08T19:24:00.326Z,21.83
2022-08-08T19:27:07.853Z,21.89
2022-08-08T19:30:24.029Z,21.92
2022-08-08T19:33:51.951Z,21.92
2022-08-08T19:37:00.178Z,21.93
2022-08-08T19:40:08.363Z,21.94
2022-08-08T19:43:22.065Z,21.97
2022-08-08T19:46:34.723Z,21.99
2022-08-08T19:49:43.077Z,21.99
2022-08-08T19:52:54.948Z,21.98
2022-08-08T19:56:11.965Z,21.95
2022-08-08T19:59:22.470Z,21.92
2022-08-08T20:02:29.126Z,21.92
2022-08-08T20:06:13.400Z,21.92
2022-08-08T20:09:04.604Z,21.92
2022-08-08T20:12:15.391Z,21.92
2022-08-08T20:15:59.767Z,21.92
2022-08-08T20:19:06.414Z,21.93
2022-08-08T20:22:20.867Z,21.91
2022-08-08T20:25:33.503Z,21.90
2022-08-08T20:28:39.686Z,21.87
2022-08-08T20:32:09.978Z,21.85
2022-08-08T20:35:17.914Z,21.84
2022-08-08T20:38:32.679Z,21.81
2022-08-08T20:41:41.398Z,21.79
2022-08-08T20:44:48.427Z,21.76
2022-08-08T20:47:57.717Z,21.73
2022-08-08T20:51:07.834Z,21.69
2022-08-08T20:54:13.868Z,21.66
2022-08-08T20:57:30.830Z,21.63
2022-08-08T21:00:42.303Z,21.61
2022-08-08T21:03:55.360Z,21.60
2022-08-08T21:07:03.000Z,21.58
2022-08-08T21:10:14.331Z,21.56
2022-08-08T21:13:23.478Z,21.54
2022-08-08T21:16:46.640Z,21.51
2022-08-08T21:19:52.556Z,21.49
2022-08-08T21:23:09.197Z,21.47
2022-08-08T21:26:26.863Z,21.45
2022-08-08T21:30:03.961Z,21.43
2022-08-08T21:33:00.067Z,21.41
2022-08-08T21:36:28.723Z,21.37
2022-08-08T21:39:56.144Z,21.33
2022-08-08T21:43:01.698Z,21.29
2022-08-08T21:48:06.606Z,21.28
2022-08-08T21:49:37.207Z,21.26
2022-08-08T21:54:27.269Z,21.25
2022-08-08T21:56:31.126Z,21.23
2022-08-08T22:00:01.243Z,21.20
2022-08-08T22:03:02.830Z,21.18
2022-08-08T22:06:13.256Z,21.17
2022-08-08T22:09:43.590Z,21.15
2022-08-08T22:12:51.479Z,21.13
2022-08-08T22:16:00.769Z,21.11
2022-08-08T22:19:08.694Z,21.09
2022-08-08T22:22:24.369Z,21.06
2022-08-08T22:25:41.524Z,21.03
2022-08-08T22:29:14.446Z,20.99
2022-08-08T22:32:29.500Z,20.94
2022-08-08T22:36:04.412Z,20.90
2022-08-08T22:39:01.933Z,20.83
2022-08-08T22:42:12.960Z,20.79
2022-08-08T22:45:19.115Z,20.75
2022-08-08T22:48:25.326Z,20.71
2022-08-08T22:51:35.108Z,20.69
2022-08-08T22:54:53.968Z,20.65
2022-08-08T22:58:02.492Z,20.60
2022-08-08T23:01:26.873Z,20.57
2022-08-08T23:04:37.709Z,20.54
2022-08-08T23:07:56.964Z,20.51
2022-08-08T23:11:06.451Z,20.49
2022-08-08T23:14:20.965Z,20.48
2022-08-08T23:17:30.002Z,20.47
2022-08-08T23:20:36.522Z,20.46
2022-08-08T23:23:48.251Z,20.46
2022-08-08T23:27:00.598Z,20.46
2022-08-08T23:30:09.185Z,20.45
2022-08-08T23:33:21.139Z,20.45
2022-08-08T23:36:42.839Z,20.45
2022-08-08T23:39:55.328Z,20.46
2022-08-08T23:43:04.360Z,20.46
2022-08-08T23:48:59.627Z,20.46
2022-08-08T23:49:37.097Z,20.46
2022-08-08T23:52:43.902Z,20.45
2022-08-08T23:55:50.235Z,20.46
2022-08-08T23:58:59.532Z,20.47
